Terminal Aerodrome Forecast
Issued by NWS Denver/Boulder, CO

Home | Current Version | Previous Version | Text Only | Print | Product List | Glossary On
Versions: 1 2 3 4 5 6 7 8 9 10 11 12 13 14 15 16 17 18 19 20 21 22 23 24 25 26 27 28 29 30 31 32 33 34 35 36 37 38 39 40 41 42 43 44 45 46 47 48 49 50
000
FTUS45 KBOU 152336
TAFDEN
TAF
KDEN 152336Z 1600/1706 06008KT P6SM SCT035
     FM160100 09008KT P6SM FEW040
     FM160200 14007KT P6SM FEW200
     FM160400 18008KT P6SM SKC
     FM162000 12006KT P6SM FEW220
     FM170200 18008KT P6SM FEW220=

USA.gov is the U.S. government's official web portal to all federal, state and local government web resources and services.